sensor_id;sensor_type;location;lat;lon;timestamp;P1;durP1;ratioP1;P2;durP2;ratioP2
1370;SDS011;14306;49.942;11.570;2024-01-15T00:00:02;44.35;;;19.77;;
1370;SDS011;14306;49.942;11.570;2024-01-15T00:01:40;46.38;;;20.95;;
1370;SDS011;14306;49.942;11.570;2024-01-15T00:03:17;48.90;;;22.08;;
1370;SDS011;14306;49.942;11.570;2024-01-15T00:04:51;49.42;;;20.98;;
1370;SDS011;14306;49.942;11.570;2024-01-15T00:06:25;48.60;;;21.60;;
1370;SDS011;14306;49.942;11.570;2024-01-15T00:08:01;57.33;;;22.20;;
1370;SDS011;14306;49.942;11.570;2024-01-15T00:09:34;52.20;;;20.42;;
1370;SDS011;14306;49.942;11.570;2024-01-15T00:11:09;53.72;;;22.85;;
1370;SDS011;14306;49.942;11.570;2024-01-15T00:12:42;49.20;;;21.10;;
1370;SDS011;14306;49.942;11.570;2024-01-15T00:14:17;52.13;;;19.73;;
1370;SDS011;14306;49.942;11.570;2024-01-15T00:15:52;39.75;;;19.20;;
1370;SDS011;14306;49.942;11.570;2024-01-15T00:17:27;57.08;;;21.42;;
1370;SDS011;14306;49.942;11.570;2024-01-15T00:19:02;51.30;;;21.40;;
1370;SDS011;14306;49.942;11.570;2024-01-15T00:20:36;59.25;;;23.67;;
1370;SDS011;14306;49.942;11.570;2024-01-15T00:22:09;48.45;;;20.17;;
1370;SDS011;14306;49.942;11.570;2024-01-15T00:23:44;49.83;;;22.50;;
1370;SDS011;14306;49.942;11.570;2024-01-15T00:25:17;42.92;;;19.60;;
1370;SDS011;14306;49.942;11.570;2024-01-15T00:26:52;47.55;;;18.80;;
1370;SDS011;14306;49.942;11.570;2024-01-15T00:28:26;43.38;;;19.65;;
1370;SDS011;14306;49.942;11.570;2024-01-15T00:30:00;41.63;;;19.77;;
1370;SDS011;14306;49.942;11.570;2024-01-15T00:31:34;47.65;;;18.92;;
1370;SDS011;14306;49.942;11.570;2024-01-15T00:33:09;41.47;;;19.23;;
1370;SDS011;14306;49.942;11.570;2024-01-15T00:34:46;54.35;;;20.08;;
1370;SDS011;14306;49.942;11.570;2024-01-15T00:36:21;44.20;;;19.10;;
1370;SDS011;14306;49.942;11.570;2024-01-15T00:37:54;45.45;;;20.00;;
1370;SDS011;14306;49.942;11.570;2024-01-15T00:39:29;46.97;;;20.45;;
1370;SDS011;14306;49.942;11.570;2024-01-15T00:41:02;48.30;;;19.70;;
1370;SDS011;14306;49.942;11.570;2024-01-15T00:42:38;45.75;;;18.38;;
1370;SDS011;14306;49.942;11.570;2024-01-15T00:44:11;42.28;;;18.75;;
1370;SDS011;14306;49.942;11.570;2024-01-15T00:45:46;57.22;;;21.40;;
1370;SDS011;14306;49.942;11.570;2024-01-15T00:47:19;53.58;;;22.30;;
1370;SDS011;14306;49.942;11.570;2024-01-15T00:48:55;44.67;;;19.48;;
1370;SDS011;14306;49.942;11.570;2024-01-15T00:50:30;46.40;;;20.00;;
1370;SDS011;14306;49.942;11.570;2024-01-15T00:52:05;56.67;;;22.77;;
1370;SDS011;14306;49.942;11.570;2024-01-15T00:53:38;60.53;;;22.65;;
1370;SDS011;14306;49.942;11.570;2024-01-15T00:55:14;60.45;;;22.52;;
1370;SDS011;14306;49.942;11.570;2024-01-15T00:56:47;53.65;;;20.67;;
1370;SDS011;14306;49.942;11.570;2024-01-15T00:58:21;47.95;;;20.25;;
1370;SDS011;14306;49.942;11.570;2024-01-15T00:59:55;51.22;;;21.02;;
1370;SDS011;14306;49.942;11.570;2024-01-15T01:01:29;57.83;;;22.10;;
1370;SDS011;14306;49.942;11.570;2024-01-15T01:03:03;50.38;;;19.42;;
1370;SDS011;14306;49.942;11.570;2024-01-15T01:04:38;56.90;;;22.83;;
1370;SDS011;14306;49.942;11.570;2024-01-15T01:06:13;51.97;;;19.90;;
1370;SDS011;14306;49.942;11.570;2024-01-15T01:07:47;55.85;;;21.08;;
1370;SDS011;14306;49.942;11.570;2024-01-15T01:09:21;56.83;;;20.70;;
1370;SDS011;14306;49.942;11.570;2024-01-15T01:10:55;57.42;;;20.85;;
1370;SDS011;14306;49.942;11.570;2024-01-15T01:12:29;51.92;;;22.08;;
1370;SDS011;14306;49.942;11.570;2024-01-15T01:14:04;44.88;;;18.40;;
1370;SDS011;14306;49.942;11.570;2024-01-15T01:15:39;55.17;;;21.25;;
1370;SDS011;14306;49.942;11.570;2024-01-15T01:17:13;50.33;;;20.65;;
1370;SDS011;14306;49.942;11.570;2024-01-15T01:18:47;53.22;;;23.02;;
1370;SDS011;14306;49.942;11.570;2024-01-15T01:20:21;51.42;;;20.75;;
1370;SDS011;14306;49.942;11.570;2024-01-15T01:21:57;48.10;;;20.52;;
1370;SDS011;14306;49.942;11.570;2024-01-15T01:23:30;59.88;;;22.10;;
1370;SDS011;14306;49.942;11.570;2024-01-15T01:25:05;51.67;;;21.92;;
1370;SDS011;14306;49.942;11.570;2024-01-15T01:26:38;52.45;;;20.70;;
1370;SDS011;14306;49.942;11.570;2024-01-15T01:28:13;56.15;;;20.50;;
1370;SDS011;14306;49.942;11.570;2024-01-15T01:29:46;52.90;;;21.80;;
1370;SDS011;14306;49.942;11.570;2024-01-15T01:31:21;56.78;;;22.17;;
1370;SDS011;14306;49.942;11.570;2024-01-15T01:32:54;52.90;;;20.92;;
1370;SDS011;14306;49.942;11.570;2024-01-15T01:34:28;56.28;;;21.70;;
1370;SDS011;14306;49.942;11.570;2024-01-15T01:36:07;50.67;;;20.00;;
1370;SDS011;14306;49.942;11.570;2024-01-15T01:37:44;47.72;;;20.25;;
1370;SDS011;14306;49.942;11.570;2024-01-15T01:39:17;53.50;;;19.52;;
1370;SDS011;14306;49.942;11.570;2024-01-15T01:40:52;49.53;;;19.73;;
1370;SDS011;14306;49.942;11.570;2024-01-15T01:42:25;49.17;;;20.02;;
1370;SDS011;14306;49.942;11.570;2024-01-15T01:44:00;51.45;;;19.20;;
1370;SDS011;14306;49.942;11.570;2024-01-15T01:45:33;53.80;;;21.83;;
1370;SDS011;14306;49.942;11.570;2024-01-15T01:47:07;46.15;;;19.10;;
1370;SDS011;14306;49.942;11.570;2024-01-15T01:48:41;52.35;;;21.00;;
1370;SDS011;14306;49.942;11.570;2024-01-15T01:50:16;54.05;;;22.75;;
1370;SDS011;14306;49.942;11.570;2024-01-15T01:51:50;66.18;;;20.23;;
1370;SDS011;14306;49.942;11.570;2024-01-15T01:53:27;49.83;;;20.25;;
1370;SDS011;14306;49.942;11.570;2024-01-15T01:55:03;48.20;;;20.70;;
1370;SDS011;14306;49.942;11.570;2024-01-15T01:56:39;49.50;;;18.80;;
1370;SDS011;14306;49.942;11.570;2024-01-15T01:58:14;45.50;;;19.15;;
1370;SDS011;14306;49.942;11.570;2024-01-15T01:59:48;50.85;;;19.75;;
1370;SDS011;14306;49.942;11.570;2024-01-15T02:01:24;55.95;;;20.50;;
1370;SDS011;14306;49.942;11.570;2024-01-15T02:02:58;55.05;;;22.92;;
1370;SDS011;14306;49.942;11.570;2024-01-15T02:04:32;52.28;;;19.75;;
1370;SDS011;14306;49.942;11.570;2024-01-15T02:06:06;41.80;;;18.33;;
1370;SDS011;14306;49.942;11.570;2024-01-15T02:07:40;53.28;;;19.58;;
1370;SDS011;14306;49.942;11.570;2024-01-15T02:09:15;53.03;;;18.27;;
1370;SDS011;14306;49.942;11.570;2024-01-15T02:10:51;45.17;;;18.88;;
1370;SDS011;14306;49.942;11.570;2024-01-15T02:12:24;45.88;;;17.10;;
1370;SDS011;14306;49.942;11.570;2024-01-15T02:13:59;45.30;;;18.45;;
1370;SDS011;14306;49.942;11.570;2024-01-15T02:15:32;42.10;;;17.90;;
1370;SDS011;14306;49.942;11.570;2024-01-15T02:17:07;45.42;;;19.13;;
1370;SDS011;14306;49.942;11.570;2024-01-15T02:18:40;43.95;;;17.75;;
1370;SDS011;14306;49.942;11.570;2024-01-15T02:20:15;54.15;;;19.85;;
1370;SDS011;14306;49.942;11.570;2024-01-15T02:21:49;44.83;;;18.80;;
1370;SDS011;14306;49.942;11.570;2024-01-15T02:23:24;38.67;;;17.13;;
1370;SDS011;14306;49.942;11.570;2024-01-15T02:24:58;44.08;;;16.92;;
1370;SDS011;14306;49.942;11.570;2024-01-15T02:26:31;59.05;;;19.75;;
1370;SDS011;14306;49.942;11.570;2024-01-15T02:28:09;48.92;;;18.25;;
1370;SDS011;14306;49.942;11.570;2024-01-15T02:29:45;44.20;;;17.50;;
1370;SDS011;14306;49.942;11.570;2024-01-15T02:31:19;46.85;;;17.80;;
1370;SDS011;14306;49.942;11.570;2024-01-15T02:32:53;36.08;;;15.43;;
1370;SDS011;14306;49.942;11.570;2024-01-15T02:34:29;42.47;;;16.83;;
1370;SDS011;14306;49.942;11.570;2024-01-15T02:36:09;42.58;;;18.52;;
1370;SDS011;14306;49.942;11.570;2024-01-15T02:37:43;34.45;;;15.70;;
1370;SDS011;14306;49.942;11.570;2024-01-15T02:39:18;43.33;;;16.42;;
1370;SDS011;14306;49.942;11.570;2024-01-15T02:40:53;46.72;;;18.42;;
1370;SDS011;14306;49.942;11.570;2024-01-15T02:42:26;37.63;;;15.93;;
1370;SDS011;14306;49.942;11.570;2024-01-15T02:44:01;39.58;;;15.82;;
1370;SDS011;14306;49.942;11.570;2024-01-15T02:45:34;42.08;;;17.10;;
1370;SDS011;14306;49.942;11.570;2024-01-15T02:47:09;37.45;;;15.80;;
1370;SDS011;14306;49.942;11.570;2024-01-15T02:48:42;45.65;;;16.95;;
1370;SDS011;14306;49.942;11.570;2024-01-15T02:50:17;37.20;;;16.30;;
1370;SDS011;14306;49.942;11.570;2024-01-15T02:51:51;43.38;;;17.50;;
1370;SDS011;14306;49.942;11.570;2024-01-15T02:53:26;43.30;;;17.08;;
1370;SDS011;14306;49.942;11.570;2024-01-15T02:55:00;44.65;;;17.98;;
1370;SDS011;14306;49.942;11.570;2024-01-15T02:56:34;36.88;;;15.35;;
1370;SDS011;14306;49.942;11.570;2024-01-15T02:58:08;37.75;;;15.63;;
1370;SDS011;14306;49.942;11.570;2024-01-15T02:59:42;38.95;;;18.15;;
1370;SDS011;14306;49.942;11.570;2024-01-15T03:01:18;44.10;;;16.35;;
1370;SDS011;14306;49.942;11.570;2024-01-15T03:02:52;39.28;;;15.05;;
1370;SDS011;14306;49.942;11.570;2024-01-15T03:04:25;40.15;;;15.68;;
1370;SDS011;14306;49.942;11.570;2024-01-15T03:06:01;34.33;;;15.52;;
1370;SDS011;14306;49.942;11.570;2024-01-15T03:07:36;36.08;;;17.23;;
1370;SDS011;14306;49.942;11.570;2024-01-15T03:09:09;38.67;;;14.95;;
1370;SDS011;14306;49.942;11.570;2024-01-15T03:10:45;38.95;;;17.23;;
1370;SDS011;14306;49.942;11.570;2024-01-15T03:12:18;42.95;;;17.40;;
1370;SDS011;14306;49.942;11.570;2024-01-15T03:13:53;37.22;;;16.95;;
1370;SDS011;14306;49.942;11.570;2024-01-15T03:15:25;41.97;;;15.88;;
1370;SDS011;14306;49.942;11.570;2024-01-15T03:17:00;39.28;;;15.68;;
1370;SDS011;14306;49.942;11.570;2024-01-15T03:18:33;43.42;;;16.48;;
1370;SDS011;14306;49.942;11.570;2024-01-15T03:20:08;44.08;;;17.95;;
1370;SDS011;14306;49.942;11.570;2024-01-15T03:21:42;39.28;;;16.08;;
1370;SDS011;14306;49.942;11.570;2024-01-15T03:23:16;37.10;;;14.43;;
1370;SDS011;14306;49.942;11.570;2024-01-15T03:24:52;43.60;;;16.48;;
1370;SDS011;14306;49.942;11.570;2024-01-15T03:26:27;45.55;;;16.92;;
1370;SDS011;14306;49.942;11.570;2024-01-15T03:28:01;40.28;;;18.10;;
1370;SDS011;14306;49.942;11.570;2024-01-15T03:29:36;34.78;;;15.68;;
1370;SDS011;14306;49.942;11.570;2024-01-15T03:31:10;41.60;;;16.73;;
1370;SDS011;14306;49.942;11.570;2024-01-15T03:32:45;34.15;;;15.20;;
1370;SDS011;14306;49.942;11.570;2024-01-15T03:34:20;34.45;;;15.45;;
1370;SDS011;14306;49.942;11.570;2024-01-15T03:35:55;36.85;;;15.32;;
1370;SDS011;14306;49.942;11.570;2024-01-15T03:37:29;34.53;;;15.30;;
1370;SDS011;14306;49.942;11.570;2024-01-15T03:39:03;38.90;;;16.33;;
1370;SDS011;14306;49.942;11.570;2024-01-15T03:40:37;40.17;;;15.80;;
1370;SDS011;14306;49.942;11.570;2024-01-15T03:42:13;40.47;;;16.48;;
1370;SDS011;14306;49.942;11.570;2024-01-15T03:43:47;41.78;;;16.52;;
1370;SDS011;14306;49.942;11.570;2024-01-15T03:45:25;34.33;;;14.90;;
1370;SDS011;14306;49.942;11.570;2024-01-15T03:46:59;37.78;;;14.45;;
1370;SDS011;14306;49.942;11.570;2024-01-15T03:48:33;37.95;;;15.38;;
1370;SDS011;14306;49.942;11.570;2024-01-15T03:50:09;33.92;;;14.55;;
1370;SDS011;14306;49.942;11.570;2024-01-15T03:51:43;38.05;;;16.20;;
1370;SDS011;14306;49.942;11.570;2024-01-15T03:53:18;37.03;;;15.57;;
1370;SDS011;14306;49.942;11.570;2024-01-15T03:54:53;37.08;;;15.35;;
1370;SDS011;14306;49.942;11.570;2024-01-15T03:56:28;38.17;;;16.55;;
1370;SDS011;14306;49.942;11.570;2024-01-15T03:58:03;35.35;;;15.88;;
1370;SDS011;14306;49.942;11.570;2024-01-15T03:59:37;38.20;;;16.35;;
1370;SDS011;14306;49.942;11.570;2024-01-15T04:01:13;40.08;;;15.48;;
1370;SDS011;14306;49.942;11.570;2024-01-15T04:02:47;40.30;;;17.20;;
1370;SDS011;14306;49.942;11.570;2024-01-15T04:04:22;35.03;;;14.40;;
1370;SDS011;14306;49.942;11.570;2024-01-15T04:05:55;34.30;;;14.27;;
1370;SDS011;14306;49.942;11.570;2024-01-15T04:07:30;38.25;;;17.10;;
1370;SDS011;14306;49.942;11.570;2024-01-15T04:09:05;33.10;;;16.83;;
1370;SDS011;14306;49.942;11.570;2024-01-15T04:10:38;44.38;;;14.73;;
1370;SDS011;14306;49.942;11.570;2024-01-15T04:12:13;35.53;;;13.63;;
1370;SDS011;14306;49.942;11.570;2024-01-15T04:13:48;34.97;;;15.68;;
1370;SDS011;14306;49.942;11.570;2024-01-15T04:15:23;43.40;;;16.35;;
1370;SDS011;14306;49.942;11.570;2024-01-15T04:16:56;39.75;;;16.65;;
1370;SDS011;14306;49.942;11.570;2024-01-15T04:18:31;36.65;;;15.82;;
1370;SDS011;14306;49.942;11.570;2024-01-15T04:20:05;31.35;;;15.02;;
1370;SDS011;14306;49.942;11.570;2024-01-15T04:21:40;33.38;;;14.45;;
1370;SDS011;14306;49.942;11.570;2024-01-15T04:23:14;34.28;;;14.13;;
1370;SDS011;14306;49.942;11.570;2024-01-15T04:24:48;31.77;;;15.45;;
1370;SDS011;14306;49.942;11.570;2024-01-15T04:26:21;30.33;;;14.25;;
1370;SDS011;14306;49.942;11.570;2024-01-15T04:27:56;32.50;;;13.70;;
1370;SDS011;14306;49.942;11.570;2024-01-15T04:29:31;37.58;;;16.65;;
1370;SDS011;14306;49.942;11.570;2024-01-15T04:31:06;35.63;;;15.00;;
1370;SDS011;14306;49.942;11.570;2024-01-15T04:32:39;40.22;;;16.15;;
1370;SDS011;14306;49.942;11.570;2024-01-15T04:34:14;34.13;;;14.75;;
1370;SDS011;14306;49.942;11.570;2024-01-15T04:35:48;36.45;;;14.15;;
1370;SDS011;14306;49.942;11.570;2024-01-15T04:37:23;37.38;;;14.85;;
1370;SDS011;14306;49.942;11.570;2024-01-15T04:38:57;33.38;;;13.48;;
1370;SDS011;14306;49.942;11.570;2024-01-15T04:40:31;31.92;;;14.70;;
1370;SDS011;14306;49.942;11.570;2024-01-15T04:42:06;32.58;;;14.88;;
1370;SDS011;14306;49.942;11.570;2024-01-15T04:43:39;32.03;;;14.00;;
1370;SDS011;14306;49.942;11.570;2024-01-15T04:45:15;37.30;;;14.30;;
1370;SDS011;14306;49.942;11.570;2024-01-15T04:46:49;43.03;;;15.90;;
1370;SDS011;14306;49.942;11.570;2024-01-15T04:48:23;36.28;;;14.25;;
1370;SDS011;14306;49.942;11.570;2024-01-15T04:49:57;40.65;;;14.45;;
1370;SDS011;14306;49.942;11.570;2024-01-15T04:51:31;27.23;;;13.57;;
1370;SDS011;14306;49.942;11.570;2024-01-15T04:53:06;39.65;;;14.52;;
1370;SDS011;14306;49.942;11.570;2024-01-15T04:54:44;32.15;;;14.82;;
1370;SDS011;14306;49.942;11.570;2024-01-15T04:56:18;38.88;;;14.52;;
1370;SDS011;14306;49.942;11.570;2024-01-15T04:57:52;29.02;;;13.30;;
1370;SDS011;14306;49.942;11.570;2024-01-15T04:59:25;32.22;;;12.80;;
1370;SDS011;14306;49.942;11.570;2024-01-15T05:01:01;31.45;;;14.27;;
1370;SDS011;14306;49.942;11.570;2024-01-15T05:02:37;41.00;;;15.15;;
1370;SDS011;14306;49.942;11.570;2024-01-15T05:04:12;31.15;;;13.45;;
1370;SDS011;14306;49.942;11.570;2024-01-15T05:05:45;30.27;;;13.70;;
1370;SDS011;14306;49.942;11.570;2024-01-15T05:07:20;32.38;;;14.27;;
1370;SDS011;14306;49.942;11.570;2024-01-15T05:08:53;35.20;;;14.57;;
1370;SDS011;14306;49.942;11.570;2024-01-15T05:10:27;30.25;;;13.73;;
1370;SDS011;14306;49.942;11.570;2024-01-15T05:12:01;29.30;;;14.05;;
1370;SDS011;14306;49.942;11.570;2024-01-15T05:13:36;30.95;;;13.82;;
1370;SDS011;14306;49.942;11.570;2024-01-15T05:15:10;32.08;;;13.43;;
1370;SDS011;14306;49.942;11.570;2024-01-15T05:16:47;35.28;;;14.60;;
1370;SDS011;14306;49.942;11.570;2024-01-15T05:18:23;27.95;;;14.38;;
1370;SDS011;14306;49.942;11.570;2024-01-15T05:19:57;36.08;;;13.82;;
1370;SDS011;14306;49.942;11.570;2024-01-15T05:21:32;32.28;;;14.40;;
1370;SDS011;14306;49.942;11.570;2024-01-15T05:23:05;27.75;;;13.07;;
1370;SDS011;14306;49.942;11.570;2024-01-15T05:24:40;31.20;;;13.93;;
1370;SDS011;14306;49.942;11.570;2024-01-15T05:26:14;37.85;;;13.20;;
1370;SDS011;14306;49.942;11.570;2024-01-15T05:27:48;33.17;;;13.90;;
1370;SDS011;14306;49.942;11.570;2024-01-15T05:29:22;29.05;;;13.98;;
1370;SDS011;14306;49.942;11.570;2024-01-15T05:30:57;25.90;;;13.02;;
1370;SDS011;14306;49.942;11.570;2024-01-15T05:32:31;41.28;;;14.50;;
1370;SDS011;14306;49.942;11.570;2024-01-15T05:34:06;29.42;;;12.63;;
1370;SDS011;14306;49.942;11.570;2024-01-15T05:35:39;33.05;;;14.43;;
1370;SDS011;14306;49.942;11.570;2024-01-15T05:37:14;31.35;;;13.85;;
1370;SDS011;14306;49.942;11.570;2024-01-15T05:38:48;30.48;;;14.48;;
1370;SDS011;14306;49.942;11.570;2024-01-15T05:40:22;26.83;;;13.57;;
1370;SDS011;14306;49.942;11.570;2024-01-15T05:41:56;28.92;;;15.57;;
1370;SDS011;14306;49.942;11.570;2024-01-15T05:43:30;28.38;;;13.15;;
1370;SDS011;14306;49.942;11.570;2024-01-15T05:45:04;33.97;;;13.65;;
1370;SDS011;14306;49.942;11.570;2024-01-15T05:46:39;27.13;;;12.90;;
1370;SDS011;14306;49.942;11.570;2024-01-15T05:48:14;39.42;;;18.25;;
1370;SDS011;14306;49.942;11.570;2024-01-15T05:49:49;30.58;;;12.40;;
1370;SDS011;14306;49.942;11.570;2024-01-15T05:51:25;25.52;;;12.25;;
1370;SDS011;14306;49.942;11.570;2024-01-15T05:52:58;35.50;;;16.02;;
1370;SDS011;14306;49.942;11.570;2024-01-15T05:54:32;28.35;;;12.68;;
1370;SDS011;14306;49.942;11.570;2024-01-15T05:56:07;27.65;;;12.52;;
1370;SDS011;14306;49.942;11.570;2024-01-15T05:57:41;26.35;;;12.70;;
1370;SDS011;14306;49.942;11.570;2024-01-15T05:59:15;34.90;;;13.15;;
1370;SDS011;14306;49.942;11.570;2024-01-15T06:00:50;26.17;;;11.90;;
1370;SDS011;14306;49.942;11.570;2024-01-15T06:02:24;24.35;;;12.98;;
1370;SDS011;14306;49.942;11.570;2024-01-15T06:04:00;27.38;;;12.52;;
1370;SDS011;14306;49.942;11.570;2024-01-15T06:05:34;28.13;;;12.75;;
1370;SDS011;14306;49.942;11.570;2024-01-15T06:07:08;34.65;;;12.93;;
1370;SDS011;14306;49.942;11.570;2024-01-15T06:08:42;33.08;;;13.10;;
1370;SDS011;14306;49.942;11.570;2024-01-15T06:10:16;30.00;;;12.13;;
1370;SDS011;14306;49.942;11.570;2024-01-15T06:11:50;25.02;;;12.45;;
1370;SDS011;14306;49.942;11.570;2024-01-15T06:13:25;25.30;;;13.38;;
1370;SDS011;14306;49.942;11.570;2024-01-15T06:14:59;26.15;;;12.82;;
1370;SDS011;14306;49.942;11.570;2024-01-15T06:16:35;26.60;;;12.30;;
1370;SDS011;14306;49.942;11.570;2024-01-15T06:18:08;28.98;;;12.27;;
1370;SDS011;14306;49.942;11.570;2024-01-15T06:19:45;30.33;;;13.35;;
1370;SDS011;14306;49.942;11.570;2024-01-15T06:21:20;33.95;;;13.10;;
1370;SDS011;14306;49.942;11.570;2024-01-15T06:22:53;30.25;;;13.60;;
1370;SDS011;14306;49.942;11.570;2024-01-15T06:24:28;31.40;;;11.93;;
1370;SDS011;14306;49.942;11.570;2024-01-15T06:26:02;28.80;;;12.27;;
1370;SDS011;14306;49.942;11.570;2024-01-15T06:27:37;32.05;;;12.95;;
1370;SDS011;14306;49.942;11.570;2024-01-15T06:29:11;27.95;;;12.60;;
1370;SDS011;14306;49.942;11.570;2024-01-15T06:30:46;22.15;;;11.80;;
1370;SDS011;14306;49.942;11.570;2024-01-15T06:32:20;29.75;;;13.10;;
1370;SDS011;14306;49.942;11.570;2024-01-15T06:33:56;26.65;;;12.85;;
1370;SDS011;14306;49.942;11.570;2024-01-15T06:35:31;26.48;;;12.40;;
1370;SDS011;14306;49.942;11.570;2024-01-15T06:37:07;30.05;;;13.48;;
1370;SDS011;14306;49.942;11.570;2024-01-15T06:38:41;25.58;;;13.93;;
1370;SDS011;14306;49.942;11.570;2024-01-15T06:40:19;26.80;;;10.75;;
1370;SDS011;14306;49.942;11.570;2024-01-15T06:41:54;27.35;;;11.85;;
1370;SDS011;14306;49.942;11.570;2024-01-15T06:43:28;27.23;;;12.45;;
1370;SDS011;14306;49.942;11.570;2024-01-15T06:45:03;24.15;;;11.38;;
1370;SDS011;14306;49.942;11.570;2024-01-15T06:46:41;22.27;;;11.32;;
1370;SDS011;14306;49.942;11.570;2024-01-15T06:48:16;26.10;;;11.38;;
1370;SDS011;14306;49.942;11.570;2024-01-15T06:49:51;24.42;;;11.15;;
1370;SDS011;14306;49.942;11.570;2024-01-15T06:51:27;25.65;;;11.82;;
1370;SDS011;14306;49.942;11.570;2024-01-15T06:53:02;27.02;;;11.35;;
1370;SDS011;14306;49.942;11.570;2024-01-15T06:54:36;29.15;;;11.40;;
1370;SDS011;14306;49.942;11.570;2024-01-15T06:56:11;22.30;;;11.07;;
1370;SDS011;14306;49.942;11.570;2024-01-15T06:57:45;26.70;;;11.55;;
1370;SDS011;14306;49.942;11.570;2024-01-15T06:59:21;30.35;;;12.05;;
1370;SDS011;14306;49.942;11.570;2024-01-15T07:00:57;29.33;;;12.63;;
1370;SDS011;14306;49.942;11.570;2024-01-15T07:02:32;28.48;;;11.85;;
1370;SDS011;14306;49.942;11.570;2024-01-15T07:04:06;29.83;;;12.90;;
1370;SDS011;14306;49.942;11.570;2024-01-15T07:05:41;21.20;;;9.93;;
1370;SDS011;14306;49.942;11.570;2024-01-15T07:07:17;34.85;;;11.13;;
1370;SDS011;14306;49.942;11.570;2024-01-15T07:08:51;23.70;;;11.95;;
1370;SDS011;14306;49.942;11.570;2024-01-15T07:10:25;24.60;;;11.30;;
1370;SDS011;14306;49.942;11.570;2024-01-15T07:12:00;27.92;;;13.25;;
1370;SDS011;14306;49.942;11.570;2024-01-15T07:13:36;27.65;;;12.70;;
1370;SDS011;14306;49.942;11.570;2024-01-15T07:15:10;28.15;;;12.25;;
1370;SDS011;14306;49.942;11.570;2024-01-15T07:16:45;23.75;;;10.60;;
1370;SDS011;14306;49.942;11.570;2024-01-15T07:18:20;27.98;;;11.60;;
1370;SDS011;14306;49.942;11.570;2024-01-15T07:19:56;25.17;;;11.93;;
1370;SDS011;14306;49.942;11.570;2024-01-15T07:21:29;25.50;;;11.10;;
1370;SDS011;14306;49.942;11.570;2024-01-15T07:23:05;25.52;;;11.35;;
1370;SDS011;14306;49.942;11.570;2024-01-15T07:24:41;25.38;;;10.20;;
1370;SDS011;14306;49.942;11.570;2024-01-15T07:26:14;23.23;;;10.32;;
1370;SDS011;14306;49.942;11.570;2024-01-15T07:27:49;26.40;;;12.55;;
1370;SDS011;14306;49.942;11.570;2024-01-15T07:29:23;30.02;;;11.60;;
1370;SDS011;14306;49.942;11.570;2024-01-15T07:30:58;22.40;;;10.77;;
1370;SDS011;14306;49.942;11.570;2024-01-15T07:32:34;24.23;;;10.02;;
1370;SDS011;14306;49.942;11.570;2024-01-15T07:34:07;21.38;;;11.00;;
1370;SDS011;14306;49.942;11.570;2024-01-15T07:35:42;24.92;;;10.38;;
1370;SDS011;14306;49.942;11.570;2024-01-15T07:37:16;23.75;;;12.30;;
1370;SDS011;14306;49.942;11.570;2024-01-15T07:38:52;22.83;;;11.27;;
1370;SDS011;14306;49.942;11.570;2024-01-15T07:40:26;21.40;;;11.35;;
1370;SDS011;14306;49.942;11.570;2024-01-15T07:42:00;30.38;;;11.88;;
1370;SDS011;14306;49.942;11.570;2024-01-15T07:43:35;29.35;;;12.68;;
1370;SDS011;14306;49.942;11.570;2024-01-15T07:45:09;30.98;;;14.02;;
1370;SDS011;14306;49.942;11.570;2024-01-15T07:46:45;29.77;;;14.05;;
1370;SDS011;14306;49.942;11.570;2024-01-15T07:48:18;25.23;;;11.95;;
1370;SDS011;14306;49.942;11.570;2024-01-15T07:49:54;27.00;;;12.05;;
1370;SDS011;14306;49.942;11.570;2024-01-15T07:51:31;22.92;;;11.43;;
1370;SDS011;14306;49.942;11.570;2024-01-15T07:53:06;19.60;;;11.10;;
1370;SDS011;14306;49.942;11.570;2024-01-15T07:54:41;25.15;;;12.32;;
1370;SDS011;14306;49.942;11.570;2024-01-15T07:56:16;24.08;;;12.55;;
1370;SDS011;14306;49.942;11.570;2024-01-15T07:57:50;32.75;;;12.88;;
1370;SDS011;14306;49.942;11.570;2024-01-15T07:59:38;25.35;;;11.80;;
1370;SDS011;14306;49.942;11.570;2024-01-15T08:01:11;25.33;;;11.27;;
1370;SDS011;14306;49.942;11.570;2024-01-15T08:02:47;28.38;;;12.25;;
1370;SDS011;14306;49.942;11.570;2024-01-15T08:04:20;22.08;;;11.40;;
1370;SDS011;14306;49.942;11.570;2024-01-15T08:05:56;20.52;;;10.52;;
1370;SDS011;14306;49.942;11.570;2024-01-15T08:07:32;23.85;;;10.38;;
1370;SDS011;14306;49.942;11.570;2024-01-15T08:09:08;26.40;;;12.35;;
1370;SDS011;14306;49.942;11.570;2024-01-15T08:10:43;25.40;;;10.48;;
1370;SDS011;14306;49.942;11.570;2024-01-15T08:12:17;21.83;;;11.18;;
1370;SDS011;14306;49.942;11.570;2024-01-15T08:13:52;35.95;;;13.02;;
1370;SDS011;14306;49.942;11.570;2024-01-15T08:15:27;25.77;;;11.45;;
1370;SDS011;14306;49.942;11.570;2024-01-15T08:17:03;30.08;;;12.93;;
1370;SDS011;14306;49.942;11.570;2024-01-15T08:18:41;31.17;;;13.82;;
1370;SDS011;14306;49.942;11.570;2024-01-15T08:20:17;29.65;;;13.77;;
1370;SDS011;14306;49.942;11.570;2024-01-15T08:21:51;24.10;;;13.02;;
1370;SDS011;14306;49.942;11.570;2024-01-15T08:23:26;23.63;;;11.43;;
1370;SDS011;14306;49.942;11.570;2024-01-15T08:25:04;30.30;;;14.02;;
1370;SDS011;14306;49.942;11.570;2024-01-15T08:26:40;29.13;;;12.93;;
1370;SDS011;14306;49.942;11.570;2024-01-15T08:28:14;21.15;;;10.73;;
1370;SDS011;14306;49.942;11.570;2024-01-15T08:29:49;29.75;;;12.35;;
1370;SDS011;14306;49.942;11.570;2024-01-15T08:31:23;29.20;;;14.13;;
1370;SDS011;14306;49.942;11.570;2024-01-15T08:32:59;26.55;;;12.27;;
1370;SDS011;14306;49.942;11.570;2024-01-15T08:34:43;23.05;;;11.68;;
1370;SDS011;14306;49.942;11.570;2024-01-15T08:36:19;21.90;;;11.70;;
1370;SDS011;14306;49.942;11.570;2024-01-15T08:37:53;21.35;;;12.20;;
1370;SDS011;14306;49.942;11.570;2024-01-15T08:39:27;22.67;;;11.45;;
1370;SDS011;14306;49.942;11.570;2024-01-15T08:41:02;24.83;;;12.38;;
1370;SDS011;14306;49.942;11.570;2024-01-15T08:42:37;31.00;;;12.18;;
1370;SDS011;14306;49.942;11.570;2024-01-15T08:44:12;24.45;;;10.77;;
1370;SDS011;14306;49.942;11.570;2024-01-15T08:45:47;22.10;;;11.38;;
1370;SDS011;14306;49.942;11.570;2024-01-15T08:47:21;24.58;;;11.60;;
1370;SDS011;14306;49.942;11.570;2024-01-15T08:48:56;18.20;;;10.25;;
1370;SDS011;14306;49.942;11.570;2024-01-15T08:50:31;23.77;;;11.60;;
1370;SDS011;14306;49.942;11.570;2024-01-15T08:52:05;25.42;;;11.38;;
1370;SDS011;14306;49.942;11.570;2024-01-15T08:53:40;22.55;;;11.13;;
1370;SDS011;14306;49.942;11.570;2024-01-15T08:55:13;22.48;;;12.15;;
1370;SDS011;14306;49.942;11.570;2024-01-15T08:56:48;27.58;;;12.00;;
1370;SDS011;14306;49.942;11.570;2024-01-15T08:58:24;28.13;;;11.77;;
1370;SDS011;14306;49.942;11.570;2024-01-15T08:59:59;21.00;;;10.30;;
1370;SDS011;14306;49.942;11.570;2024-01-15T09:01:33;23.27;;;12.27;;
1370;SDS011;14306;49.942;11.570;2024-01-15T09:03:07;24.50;;;11.82;;
1370;SDS011;14306;49.942;11.570;2024-01-15T09:04:41;25.00;;;12.52;;
1370;SDS011;14306;49.942;11.570;2024-01-15T09:06:16;27.42;;;12.68;;
1370;SDS011;14306;49.942;11.570;2024-01-15T09:07:50;32.20;;;12.43;;
1370;SDS011;14306;49.942;11.570;2024-01-15T09:09:24;29.75;;;13.90;;
1370;SDS011;14306;49.942;11.570;2024-01-15T09:10:58;27.38;;;14.13;;
1370;SDS011;14306;49.942;11.570;2024-01-15T09:12:36;21.42;;;10.82;;